createdAt,value
2022-12-17T00:01:11.030Z,101396.78
2022-12-17T00:03:57.243Z,101398.13
2022-12-17T00:06:44.103Z,101397.16
2022-12-17T00:09:30.289Z,101400.44
2022-12-17T00:12:16.743Z,101407.75
2022-12-17T00:15:02.708Z,101404.81
2022-12-17T00:17:50.237Z,101404.44
2022-12-17T00:20:36.552Z,101418.41
2022-12-17T00:23:23.914Z,101414.91
2022-12-17T00:26:10.481Z,101416.53
2022-12-17T00:29:05.624Z,101427.28
2022-12-17T00:31:51.288Z,101429.31
2022-12-17T00:34:39.210Z,101440.91
2022-12-17T00:37:25.255Z,101436.66
2022-12-17T00:40:11.114Z,101446.28
2022-12-17T00:42:56.822Z,101437.59
2022-12-17T00:45:42.841Z,101438.34
2022-12-17T00:48:28.956Z,101443.06
2022-12-17T00:51:16.560Z,101445.19
2022-12-17T00:54:02.807Z,101444.31
2022-12-17T00:56:49.043Z,101448.94
2022-12-17T00:59:35.185Z,101456.09
2022-12-17T01:02:21.189Z,101454.56
2022-12-17T01:05:07.617Z,101455.22
2022-12-17T01:07:55.048Z,101455.44
2022-12-17T01:10:42.066Z,101444.16
2022-12-17T01:13:33.526Z,101457.38
2022-12-17T01:16:23.516Z,101458.00
2022-12-17T01:19:10.330Z,101447.03
2022-12-17T01:21:56.519Z,101450.25
2022-12-17T01:24:49.546Z,101446.47
2022-12-17T01:27:35.243Z,101452.91
2022-12-17T01:30:21.084Z,101459.22
2022-12-17T01:33:21.354Z,101467.88
2022-12-17T01:36:07.791Z,101465.41
2022-12-17T01:38:53.819Z,101466.53
2022-12-17T01:41:40.986Z,101474.81
2022-12-17T01:44:44.515Z,101479.81
2022-12-17T01:47:30.297Z,101478.34
2022-12-17T01:50:16.606Z,101484.25
2022-12-17T01:53:02.715Z,101488.41
2022-12-17T01:55:48.440Z,101478.59
2022-12-17T01:58:35.559Z,101483.47
2022-12-17T02:01:21.519Z,101481.09
2022-12-17T02:04:07.416Z,101478.53
2022-12-17T02:07:06.135Z,101487.28
2022-12-17T02:09:58.394Z,101481.84
2022-12-17T02:12:49.124Z,101479.16
2022-12-17T02:15:38.957Z,101486.94
2022-12-17T02:18:27.288Z,101498.28
2022-12-17T02:21:15.580Z,101499.03
2022-12-17T02:24:09.323Z,101498.66
2022-12-17T02:26:57.271Z,101497.72
2022-12-17T02:29:45.651Z,101500.69
2022-12-17T02:32:40.820Z,101502.34
2022-12-17T02:35:31.665Z,101505.56
2022-12-17T02:38:17.403Z,101503.69
2022-12-17T02:41:04.601Z,101505.75
2022-12-17T02:43:52.744Z,101497.88
2022-12-17T02:46:39.342Z,101496.47
2022-12-17T02:49:25.148Z,101505.53
2022-12-17T02:52:12.744Z,101501.88
2022-12-17T02:54:58.638Z,101504.75
2022-12-17T02:57:46.504Z,101508.97
2022-12-17T03:00:36.562Z,101506.41
2022-12-17T03:03:21.856Z,101510.50
2022-12-17T03:06:07.622Z,101514.56
2022-12-17T03:08:53.281Z,101510.59
2022-12-17T03:11:39.085Z,101511.38
2022-12-17T03:14:25.475Z,101519.22
2022-12-17T03:17:12.135Z,101521.72
2022-12-17T03:19:57.937Z,101520.44
2022-12-17T03:22:43.832Z,101514.84
2022-12-17T03:25:29.777Z,101521.50
2022-12-17T03:28:30.410Z,101518.13
2022-12-17T03:31:16.704Z,101525.09
2022-12-17T03:34:04.068Z,101534.31
2022-12-17T03:36:50.308Z,101535.97
2022-12-17T03:39:36.162Z,101544.00
2022-12-17T03:42:22.324Z,101544.28
2022-12-17T03:45:08.080Z,101535.84
2022-12-17T03:48:05.359Z,101537.03
2022-12-17T03:50:52.992Z,101545.63
2022-12-17T03:53:38.990Z,101543.03
2022-12-17T03:56:27.369Z,101544.81
2022-12-17T03:59:13.074Z,101538.81
2022-12-17T04:01:58.885Z,101532.16
2022-12-17T04:04:44.890Z,101526.63
2022-12-17T04:07:31.916Z,101528.97
2022-12-17T04:10:17.863Z,101535.34
2022-12-17T04:13:04.134Z,101538.44
2022-12-17T04:15:50.090Z,101542.81
2022-12-17T04:18:36.133Z,101541.16
2022-12-17T04:21:21.567Z,101547.88
2022-12-17T04:24:09.201Z,101550.19
2022-12-17T04:26:55.122Z,101562.38
2022-12-17T04:29:42.246Z,101558.31
2022-12-17T04:32:32.296Z,101555.81
2022-12-17T04:35:21.329Z,101560.31
2022-12-17T04:38:07.207Z,101568.81
2022-12-17T04:40:54.322Z,101569.38
2022-12-17T04:43:40.115Z,101584.69
2022-12-17T04:46:26.196Z,101583.22
2022-12-17T04:49:12.287Z,101597.03
2022-12-17T04:51:58.075Z,101587.16
2022-12-17T04:54:43.817Z,101587.53
2022-12-17T04:57:30.809Z,101594.72
2022-12-17T05:00:16.630Z,101586.22
2022-12-17T05:03:02.577Z,101584.59
2022-12-17T05:05:48.744Z,101586.69
2022-12-17T05:08:39.640Z,101590.31
2022-12-17T05:11:27.265Z,101591.41
2022-12-17T05:14:14.549Z,101592.53
2022-12-17T05:17:00.504Z,101589.03
2022-12-17T05:19:46.532Z,101591.88
2022-12-17T05:22:32.576Z,101591.63
2022-12-17T05:25:18.356Z,101590.97
2022-12-17T05:28:04.747Z,101602.34
2022-12-17T05:30:51.885Z,101600.19
2022-12-17T05:33:38.447Z,101603.88
2022-12-17T05:36:25.212Z,101597.59
2022-12-17T05:39:11.590Z,101606.03
2022-12-17T05:41:57.788Z,101606.28
2022-12-17T05:44:46.947Z,101608.41
2022-12-17T05:47:34.199Z,101616.34
2022-12-17T05:50:20.024Z,101618.47
2022-12-17T05:53:06.172Z,101615.16
2022-12-17T05:55:52.606Z,101617.38
2022-12-17T05:58:39.164Z,101617.38
2022-12-17T06:01:25.893Z,101618.63
2022-12-17T06:04:13.824Z,101615.97
2022-12-17T06:06:59.959Z,101619.88
2022-12-17T06:09:47.230Z,101618.38
2022-12-17T06:12:33.674Z,101626.41
2022-12-17T06:15:19.918Z,101631.84
2022-12-17T06:18:16.480Z,101627.13
2022-12-17T06:21:05.093Z,101627.78
2022-12-17T06:23:51.143Z,101637.13
2022-12-17T06:26:38.394Z,101638.34
2022-12-17T06:29:25.776Z,101645.72
2022-12-17T06:32:12.515Z,101650.06
2022-12-17T06:34:58.737Z,101646.81
2022-12-17T06:37:46.261Z,101650.31
2022-12-17T06:40:32.901Z,101652.19
2022-12-17T06:43:27.682Z,101650.59
2022-12-17T06:46:14.344Z,101660.47
2022-12-17T06:49:00.714Z,101665.56
2022-12-17T06:51:55.605Z,101654.66
2022-12-17T06:54:42.776Z,101661.22
2022-12-17T06:57:28.733Z,101659.47
2022-12-17T07:00:14.865Z,101657.97
2022-12-17T07:03:00.972Z,101659.25
2022-12-17T07:05:47.082Z,101663.50
2022-12-17T07:08:32.813Z,101685.66
2022-12-17T07:11:20.513Z,101676.63
2022-12-17T07:14:02.980Z,101693.72
2022-12-17T07:16:49.629Z,101681.44
2022-12-17T07:19:35.779Z,101697.09
2022-12-17T07:22:21.749Z,101693.25
2022-12-17T07:25:08.417Z,101693.41
2022-12-17T07:27:56.707Z,101703.28
2022-12-17T07:30:44.562Z,101695.56
2022-12-17T07:33:30.517Z,101693.88
2022-12-17T07:36:17.327Z,101696.66
2022-12-17T07:39:03.827Z,101707.09
2022-12-17T07:41:50.135Z,101703.59
2022-12-17T07:44:37.759Z,101703.94
2022-12-17T07:47:23.769Z,101715.66
2022-12-17T07:50:09.542Z,101711.50
2022-12-17T07:52:55.435Z,101711.06
2022-12-17T07:55:41.486Z,101723.88
2022-12-17T07:58:29.240Z,101723.16
2022-12-17T08:01:19.339Z,101729.88
2022-12-17T08:04:05.764Z,101733.75
2022-12-17T08:06:56.577Z,101738.22
2022-12-17T08:09:46.024Z,101733.97
2022-12-17T08:12:32.446Z,101736.00
2022-12-17T08:15:18.669Z,101746.97
2022-12-17T08:18:06.327Z,101741.59
2022-12-17T08:20:53.023Z,101739.50
2022-12-17T08:23:40.179Z,101748.25
2022-12-17T08:26:26.405Z,101751.22
2022-12-17T08:29:12.809Z,101756.22
2022-12-17T08:31:58.845Z,101755.22
2022-12-17T08:34:46.200Z,101759.09
2022-12-17T08:37:35.994Z,101761.50
2022-12-17T08:40:37.849Z,101755.03
2022-12-17T08:43:29.840Z,101763.59
2022-12-17T08:46:29.519Z,101763.72
2022-12-17T08:49:17.122Z,101764.19
2022-12-17T08:52:04.549Z,101774.06
2022-12-17T08:54:57.096Z,101785.69
2022-12-17T08:57:43.068Z,101783.59
2022-12-17T09:00:32.457Z,101780.38
2022-12-17T09:03:20.378Z,101782.06
2022-12-17T09:06:07.382Z,101784.78
2022-12-17T09:08:56.844Z,101782.09
2022-12-17T09:11:44.511Z,101785.31
2022-12-17T09:14:30.733Z,101791.97
2022-12-17T09:17:19.122Z,101794.84
2022-12-17T09:20:05.205Z,101796.56
2022-12-17T09:22:52.711Z,101802.69
2022-12-17T09:25:42.063Z,101794.13
2022-12-17T09:28:29.963Z,101792.44
2022-12-17T09:31:18.294Z,101792.63
2022-12-17T09:34:06.111Z,101792.00
2022-12-17T09:36:52.288Z,101793.09
2022-12-17T09:39:40.172Z,101799.84
2022-12-17T09:42:34.418Z,101793.50
2022-12-17T09:45:26.700Z,101800.22
2022-12-17T09:48:19.644Z,101796.00
2022-12-17T09:51:10.341Z,101802.53
2022-12-17T09:54:02.440Z,101800.50
2022-12-17T09:56:51.868Z,101803.38
2022-12-17T09:59:42.062Z,101809.16
2022-12-17T10:02:32.130Z,101810.31
2022-12-17T10:05:20.776Z,101810.75
2022-12-17T10:08:09.272Z,101812.13
2022-12-17T10:11:00.428Z,101818.31
2022-12-17T10:13:48.992Z,101817.31
2022-12-17T10:16:45.586Z,101820.06
2022-12-17T10:19:35.440Z,101829.22
2022-12-17T10:22:26.348Z,101828.41
2022-12-17T10:25:12.097Z,101827.00
2022-12-17T10:27:57.983Z,101837.47
2022-12-17T10:30:44.852Z,101818.28
2022-12-17T10:33:35.484Z,101818.53
2022-12-17T10:36:21.936Z,101815.50
2022-12-17T10:39:12.961Z,101821.13
2022-12-17T10:41:59.987Z,101812.53
2022-12-17T10:44:47.503Z,101816.69
2022-12-17T10:47:36.371Z,101816.56
2022-12-17T10:50:27.958Z,101822.91
2022-12-17T10:53:14.275Z,101824.00
2022-12-17T10:56:06.916Z,101835.38
2022-12-17T10:59:00.879Z,101830.38
2022-12-17T11:01:47.151Z,101831.66
2022-12-17T11:04:41.910Z,101833.09
2022-12-17T11:07:31.610Z,101831.78
2022-12-17T11:10:19.677Z,101843.19
2022-12-17T11:13:07.730Z,101846.72
2022-12-17T11:15:56.336Z,101838.03
2022-12-17T11:18:46.510Z,101837.94
2022-12-17T11:21:38.526Z,101833.50
2022-12-17T11:24:30.599Z,101828.19
2022-12-17T11:27:17.373Z,101834.97
2022-12-17T11:30:03.360Z,101835.22
2022-12-17T11:33:01.085Z,101839.66
2022-12-17T11:35:52.800Z,101836.47
2022-12-17T11:38:46.407Z,101831.31
2022-12-17T11:41:36.968Z,101834.19
2022-12-17T11:44:28.698Z,101829.81
2022-12-17T11:47:22.501Z,101821.97
2022-12-17T11:50:14.935Z,101824.88
2022-12-17T11:53:05.592Z,101830.81
2022-12-17T11:55:54.935Z,101832.34
2022-12-17T11:58:46.504Z,101835.28
2022-12-17T12:01:38.511Z,101839.19
2022-12-17T12:04:26.948Z,101837.25
2022-12-17T12:07:18.657Z,101822.78
2022-12-17T12:10:08.251Z,101829.84
2022-12-17T12:13:00.054Z,101819.47
2022-12-17T12:15:53.520Z,101825.03
2022-12-17T12:18:44.592Z,101830.03
2022-12-17T12:21:38.371Z,101825.22
2022-12-17T12:24:30.516Z,101829.94
2022-12-17T12:27:19.764Z,101824.44
2022-12-17T12:30:09.968Z,101813.50
2022-12-17T12:33:06.913Z,101816.19
2022-12-17T12:35:56.504Z,101814.31
2022-12-17T12:38:46.546Z,101801.03
2022-12-17T12:41:37.880Z,101801.66
2022-12-17T12:44:28.119Z,101810.53
2022-12-17T12:47:17.552Z,101811.94
2022-12-17T12:50:13.411Z,101816.50
2022-12-17T12:53:01.980Z,101810.75
2022-12-17T12:55:54.874Z,101811.16
2022-12-17T12:58:45.455Z,101820.91
2022-12-17T13:01:31.784Z,101813.00
2022-12-17T13:04:19.606Z,101812.53
2022-12-17T13:06:50.709Z,101801.22
2022-12-17T13:09:21.781Z,101797.25
2022-12-17T13:11:51.396Z,101801.13
2022-12-17T13:14:21.178Z,101801.41
2022-12-17T13:16:53.245Z,101797.66
2022-12-17T13:19:33.137Z,101797.66
2022-12-17T13:22:12.685Z,101793.44
2022-12-17T13:24:41.557Z,101796.81
2022-12-17T13:27:25.162Z,101797.56
2022-12-17T13:29:54.013Z,101787.16
2022-12-17T13:32:25.162Z,101799.28
2022-12-17T13:34:59.970Z,101789.97
2022-12-17T13:37:35.337Z,101779.88
2022-12-17T13:40:14.190Z,101789.13
2022-12-17T13:42:46.215Z,101782.56
2022-12-17T13:45:16.419Z,101784.22
2022-12-17T13:47:44.816Z,101777.66
2022-12-17T13:50:36.818Z,101782.56
2022-12-17T13:53:13.368Z,101788.75
2022-12-17T13:55:42.193Z,101788.19
2022-12-17T13:58:21.581Z,101787.91
2022-12-17T14:00:50.187Z,101783.13
2022-12-17T14:03:37.104Z,101783.91
2022-12-17T14:06:12.636Z,101791.00
2022-12-17T14:08:42.868Z,101797.84
2022-12-17T14:11:30.118Z,101790.41
2022-12-17T14:13:58.983Z,101803.34
2022-12-17T14:16:27.601Z,101795.34
2022-12-17T14:18:57.357Z,101799.75
2022-12-17T14:21:26.262Z,101798.81
2022-12-17T14:23:57.007Z,101796.72
2022-12-17T14:26:25.718Z,101802.97
2022-12-17T14:28:55.109Z,101805.66
2022-12-17T14:31:27.112Z,101808.53
2022-12-17T14:34:07.141Z,101803.19
2022-12-17T14:36:36.642Z,101812.44
2022-12-17T14:39:11.044Z,101812.34
2022-12-17T14:41:57.155Z,101818.44
2022-12-17T14:44:27.436Z,101812.59
2022-12-17T14:47:08.824Z,101814.16
2022-12-17T14:49:38.655Z,101814.38
2022-12-17T14:52:13.147Z,101813.25
2022-12-17T14:54:47.656Z,101799.72
2022-12-17T14:57:20.757Z,101823.09
2022-12-17T14:59:50.309Z,101815.31
2022-12-17T15:02:23.623Z,101816.25
2022-12-17T15:04:53.054Z,101814.84
2022-12-17T15:07:24.127Z,101815.91
2022-12-17T15:09:54.651Z,101814.34
2022-12-17T15:12:24.128Z,101812.38
2022-12-17T15:14:52.355Z,101815.03
2022-12-17T15:17:20.796Z,101808.03
2022-12-17T15:19:55.621Z,101806.78
2022-12-17T15:22:24.671Z,101809.94
2022-12-17T15:24:54.240Z,101809.53
2022-12-17T15:27:22.511Z,101811.19
2022-12-17T15:29:50.866Z,101810.88
2022-12-17T15:32:19.817Z,101816.31
2022-12-17T15:34:48.394Z,101821.44
2022-12-17T15:37:19.825Z,101827.19
2022-12-17T15:39:53.931Z,101828.50
2022-12-17T15:42:40.023Z,101833.50
2022-12-17T15:45:09.410Z,101851.41
2022-12-17T15:47:37.829Z,101849.63
2022-12-17T15:50:06.704Z,101844.69
2022-12-17T15:52:34.973Z,101850.53
2022-12-17T15:55:04.632Z,101852.03
2022-12-17T15:57:33.182Z,101864.06
2022-12-17T16:00:01.493Z,101860.09
2022-12-17T16:02:30.101Z,101857.94
2022-12-17T16:04:58.674Z,101862.63
2022-12-17T16:07:27.124Z,101862.63
2022-12-17T16:09:59.010Z,101867.94
2022-12-17T16:12:33.005Z,101863.75
2022-12-17T16:15:01.407Z,101861.59
2022-12-17T16:17:29.896Z,101871.13
2022-12-17T16:19:58.540Z,101867.13
2022-12-17T16:22:27.340Z,101871.13
2022-12-17T16:24:55.555Z,101874.47
2022-12-17T16:27:23.928Z,101873.47
2022-12-17T16:29:53.862Z,101874.16
2022-12-17T16:32:22.359Z,101876.16
2022-12-17T16:34:50.719Z,101878.00
2022-12-17T16:37:19.166Z,101894.19
2022-12-17T16:39:47.785Z,101893.66
2022-12-17T16:42:16.368Z,101893.47
2022-12-17T16:44:44.706Z,101900.66
2022-12-17T16:47:14.478Z,101899.81
2022-12-17T16:49:42.838Z,101907.16
2022-12-17T16:52:11.573Z,101904.16
2022-12-17T16:54:40.213Z,101908.16
2022-12-17T16:57:08.556Z,101902.47
2022-12-17T16:59:37.025Z,101901.97
2022-12-17T17:02:05.456Z,101910.94
2022-12-17T17:04:35.228Z,101917.25
2022-12-17T17:07:03.647Z,101906.88
2022-12-17T17:09:31.978Z,101904.19
2022-12-17T17:12:00.338Z,101903.38
2022-12-17T17:14:28.679Z,101912.06
2022-12-17T17:16:56.932Z,101906.06
2022-12-17T17:19:25.373Z,101906.06
2022-12-17T17:21:55.101Z,101894.94
2022-12-17T17:24:25.879Z,101903.22
2022-12-17T17:26:55.201Z,101904.31
2022-12-17T17:29:23.555Z,101907.66
2022-12-17T17:34:40.375Z,101914.28
2022-12-17T17:37:10.147Z,101909.63
2022-12-17T17:39:38.347Z,101922.81
2022-12-17T17:42:06.778Z,101919.63
2022-12-17T17:44:35.316Z,101917.09
2022-12-17T17:47:04.174Z,101929.44
2022-12-17T17:49:32.682Z,101929.38
2022-12-17T17:52:09.792Z,101921.84
2022-12-17T17:54:40.894Z,101927.78
2022-12-17T17:57:10.056Z,101917.75
2022-12-17T17:59:39.556Z,101917.69
2022-12-17T18:02:08.939Z,101919.97
2022-12-17T18:04:37.396Z,101919.78
2022-12-17T18:09:55.730Z,101924.66
2022-12-17T18:12:41.465Z,101916.22
2022-12-17T18:15:18.636Z,101926.44
2022-12-17T18:17:50.139Z,101927.97
2022-12-17T18:20:18.772Z,101937.56
2022-12-17T18:22:47.539Z,101937.56
2022-12-17T18:25:17.747Z,101939.97
2022-12-17T18:27:46.087Z,101936.44
2022-12-17T18:30:16.145Z,101940.41
2022-12-17T18:32:44.520Z,101934.25
2022-12-17T18:35:12.876Z,101933.38
2022-12-17T18:37:41.106Z,101943.63
2022-12-17T18:40:09.800Z,101935.78
2022-12-17T18:42:56.727Z,101939.97
2022-12-17T18:45:25.183Z,101937.75
2022-12-17T18:47:53.511Z,101948.03
2022-12-17T18:50:21.821Z,101956.03
2022-12-17T18:52:50.150Z,101946.66
2022-12-17T18:55:18.465Z,101956.81
2022-12-17T18:57:48.214Z,101953.78
2022-12-17T19:00:17.198Z,101957.50
2022-12-17T19:02:46.079Z,101950.94
2022-12-17T19:05:14.458Z,101948.47
2022-12-17T19:07:43.674Z,101951.72
2022-12-17T19:10:15.975Z,101957.03
2022-12-17T19:12:45.019Z,101961.00
2022-12-17T19:15:17.113Z,101956.56
2022-12-17T19:17:50.742Z,101954.00
2022-12-17T19:20:19.959Z,101955.81
2022-12-17T19:22:48.216Z,101953.66
2022-12-17T19:25:16.569Z,101954.38
2022-12-17T19:27:44.830Z,101956.75
2022-12-17T19:30:13.293Z,101954.53
2022-12-17T19:32:43.210Z,101953.75
2022-12-17T19:35:11.442Z,101955.06
2022-12-17T19:37:39.780Z,101956.56
2022-12-17T19:40:08.678Z,101955.47
2022-12-17T19:42:37.836Z,101961.47
2022-12-17T19:45:06.860Z,101969.47
2022-12-17T19:47:35.114Z,101968.91
2022-12-17T19:50:05.440Z,101961.69
2022-12-17T19:52:33.728Z,101961.94
2022-12-17T19:55:02.495Z,101968.34
2022-12-17T19:57:31.680Z,101970.97
2022-12-17T20:00:00.192Z,101966.63
2022-12-17T20:02:32.746Z,101972.78
2022-12-17T20:05:01.717Z,101978.09
2022-12-17T20:07:31.366Z,101980.34
2022-12-17T20:10:00.233Z,101975.59
2022-12-17T20:12:28.429Z,101987.41
2022-12-17T20:14:56.804Z,101987.97
2022-12-17T20:17:25.994Z,101987.69
2022-12-17T20:19:56.323Z,101987.41
2022-12-17T20:22:26.396Z,101991.03
2022-12-17T20:24:56.219Z,101994.38
2022-12-17T20:27:24.593Z,101995.22
2022-12-17T20:29:53.624Z,101994.94
2022-12-17T20:32:21.951Z,101999.41
2022-12-17T20:34:50.469Z,101991.16
2022-12-17T20:37:18.836Z,101999.28
2022-12-17T20:39:47.281Z,101995.09
2022-12-17T20:42:18.637Z,101998.59
2022-12-17T20:44:53.030Z,102000.56
2022-12-17T20:47:21.847Z,101993.00
2022-12-17T20:49:50.219Z,101989.09
2022-12-17T20:52:18.494Z,101990.50
2022-12-17T20:54:46.750Z,101993.28
2022-12-17T20:57:14.968Z,102000.00
2022-12-17T20:59:44.913Z,101996.38
2022-12-17T21:02:13.187Z,102003.56
2022-12-17T21:04:41.480Z,101994.06
2022-12-17T21:07:09.982Z,101991.69
2022-12-17T21:09:38.486Z,101993.38
2022-12-17T21:12:07.250Z,101994.22
2022-12-17T21:14:36.035Z,101999.78
2022-12-17T21:17:06.017Z,101995.31
2022-12-17T21:19:34.404Z,101990.03
2022-12-17T21:22:02.688Z,102002.72
2022-12-17T21:24:31.097Z,102007.88
2022-12-17T21:26:59.341Z,102008.59
2022-12-17T21:29:27.733Z,102002.03
2022-12-17T21:31:56.055Z,102012.91
2022-12-17T21:34:29.101Z,102004.53
2022-12-17T21:36:57.733Z,101993.41
2022-12-17T21:39:25.991Z,102003.16
2022-12-17T21:42:12.026Z,102011.81
2022-12-17T21:44:40.770Z,102004.53
2022-12-17T21:47:09.108Z,102011.13
2022-12-17T21:49:38.767Z,102006.22
2022-12-17T21:52:08.051Z,102002.88
2022-12-17T21:54:38.922Z,102012.94
2022-12-17T21:57:07.500Z,102013.09
2022-12-17T21:59:35.789Z,102017.25
2022-12-17T22:02:04.082Z,102025.22
2022-12-17T22:04:32.499Z,102024.38
2022-12-17T22:07:04.833Z,102020.59
2022-12-17T22:10:03.382Z,102026.47
2022-12-17T22:12:47.140Z,102022.41
2022-12-17T22:15:17.404Z,102020.75
2022-12-17T22:17:46.697Z,102021.03
2022-12-17T22:20:16.192Z,102023.81
2022-12-17T22:22:45.943Z,102017.25
2022-12-17T22:25:14.730Z,102015.44
2022-12-17T22:27:43.150Z,102016.28
2022-12-17T22:30:31.895Z,102017.38
2022-12-17T22:33:00.344Z,102017.66
2022-12-17T22:36:45.513Z,102011.81
2022-12-17T22:42:29.525Z,102023.53
2022-12-17T22:44:29.190Z,102021.31
2022-12-17T22:44:42.079Z,102023.41
2022-12-17T22:47:06.865Z,102029.41
2022-12-17T22:49:35.091Z,102033.59
2022-12-17T22:52:03.595Z,102032.47
2022-12-17T22:54:33.508Z,102039.75
2022-12-17T22:57:34.676Z,102036.66
2022-12-17T22:59:50.803Z,102033.59
2022-12-17T23:02:19.221Z,102029.66
2022-12-17T23:04:48.110Z,102036.91
2022-12-17T23:07:16.358Z,102025.78
2022-12-17T23:09:46.208Z,102028.72
2022-12-17T23:12:31.925Z,102036.81
2022-12-17T23:15:00.360Z,102034.44
2022-12-17T23:17:28.608Z,102036.41
2022-12-17T23:19:56.856Z,102040.03
2022-12-17T23:22:25.122Z,102037.50
2022-12-17T23:24:54.688Z,102033.88
2022-12-17T23:27:23.075Z,102027.31
2022-12-17T23:29:51.374Z,102013.22
2022-12-17T23:32:19.615Z,102027.75
2022-12-17T23:34:47.886Z,102029.13
2022-12-17T23:37:16.221Z,102023.53
2022-12-17T23:39:44.815Z,102033.44
2022-12-17T23:42:14.383Z,102022.28
2022-12-17T23:44:42.588Z,102026.47
2022-12-17T23:47:10.852Z,102025.91
2022-12-17T23:49:39.049Z,102029.25
2022-12-17T23:52:07.521Z,102042.50
2022-12-17T23:54:37.645Z,102029.66
2022-12-17T23:57:05.871Z,102034.41
2022-12-17T23:59:35.387Z,102035.81
